Terminal Aerodrome Forecast
Issued by NWS North Platte, NE

Home | Current Version | Previous Version | Graphics & Text | Print | Product List | Glossary On
Versions: 1 2 3 4 5 6 7 8 9 10 11 12 13 14 15 16
651
FTUS43 KLBF 162320
TAFVTN
TAF
KVTN 162320Z 1700/1724 33005KT P6SM FEW150
     FM171400 14004KT P6SM FEW100
     FM171800 17010KT P6SM SCT100=

USA.gov is the U.S. government's official web portal to all federal, state and local government web resources and services.